Latest Coastal Weather Observations for Cape Otway

IDT60701

Issued at 4:55 pm EDT Thursday 23 October 2014 (issued every 10 minutes, with the page automatically refreshed every 10 minutes)

About coastal observations | Map of coastal stations | Coastal observations for TAS | Marine services | Other Formats
Station Details ID: 090015 Name: CAPE OTWAY LIGHTHOUSE Lat: -38.86 Lon: 143.51 Height: 82.0 m
Data from the previous 72 hours. | See also: Recent months at Cape Otway
Date/Time
EDT
Temp

°C
Wind Pressure Rain
since 9am
mm
Weather Cloud Vis
km
Sea
Height
m
Swell
Dir
 
Speed
knots
Gust
knots
hPa Trend Height
m
Period
s
Dir
23/04:31pm 14.7 E 16 26 1017.2 - 0.0 - - - - - - -
23/04:30pm 14.7 E 16 26 1017.2 - 0.0 - - - - - - -
23/04:29pm 14.7 E 16 26 1017.2 - 0.0 - - - - - - -
23/04:00pm 15.3 E 16 24 1017.3 - 0.0 - - - - - - -
23/03:30pm 16.6 ENE 18 28 1017.4 - 0.0 - - - - - - -
23/03:28pm 16.6 ENE 18 28 1017.4 - 0.0 - - - - - - -
23/03:26pm 16.6 ENE 18 28 1017.4 - 0.0 - - - - - - -
23/03:00pm 15.1 E 13 21 1017.8 F 0.0 Fine Mostly cloudy 20 2 1.0 - SE
23/02:30pm 15.2 E 10 19 1018.4 - 0.0 - - - - - - -
23/02:00pm 14.8 E 9 14 1018.8 - 0.0 - - - - - - -
23/01:30pm 14.8 E 8 14 1019.1 - 0.0 - - - - - - -
23/01:00pm 14.8 E 9 14 1019.1 - 0.0 - - - - - - -
23/12:30pm 14.7 E 10 13 1019.4 - 0.0 - - - - - - -
23/12:00pm 14.7 E 9 12 1019.9 - 0.0 - - - - - - -
23/11:30am 14.8 ESE 8 10 1020.4 - 0.0 - - - - - - -
23/11:00am 14.3 ESE 8 11 1020.5 - 0.0 - - - - - - -
23/10:30am 13.8 ESE 9 12 1020.8 - 0.0 - - - - - - -
23/10:00am 13.7 SE 6 10 1020.9 - 0.0 - - - - - - -
23/09:30am 13.5 S 5 8 1020.9 - 0.0 - - - - - - -
23/09:00am 13.3 SW 5 8 1021.1 F 0.0 Fine Cloudy 20 1 1.0 - SE
23/08:30am 13.1 S 4 10 1021.1 - 0.0 - - - - - - -
23/08:00am 13.1 SSE 7 10 1021.0 - 0.0 - - - - - - -
23/07:30am 13.1 SE 6 10 1020.7 - 0.0 - - - - - - -
23/07:00am 13.2 SSE 5 10 1020.5 - 0.0 - - - - - - -
23/06:30am 13.0 SSE 4 6 1020.4 - 0.0 - - - - - - -
23/06:00am 13.1 WSW 5 9 1020.2 - 0.0 - - - - - - -
23/05:30am 13.2 SW 8 11 1020.0 - 0.0 - - - - - - -
23/05:00am 13.5 SW 3 8 1019.9 - 0.0 - - - - - - -
23/04:30am 13.3 SW 4 7 1019.8 - 0.0 - - - - - - -
23/04:00am 13.5 NW 4 6 1019.7 - 0.0 - - - - - - -
23/03:30am 13.3 SW 6 9 1019.7 - 0.0 - - - - - - -
23/03:00am 13.5 SW 6 9 1019.9 - 0.0 - - - - - - -
23/02:30am 13.4 SW 7 10 1019.9 - 0.0 - - - - - - -
23/02:00am 13.3 SW 6 9 1019.9 - 0.0 - - - - - - -
23/01:30am 13.3 WSW 5 9 1020.2 - 0.0 - - - - - - -
23/01:00am 13.3 WSW 6 11 1020.4 - 0.0 - - - - - - -
23/12:30am 13.4 SW 6 10 1020.3 - 0.0 - - - - - - -
23/12:00am 13.4 SW 7 10 1020.2 - 0.0 - - - - - - -
 
Date/Time
EDT
Temp

°C
Wind Pressure Rain
since 9am
mm
Weather Cloud Vis
km
Sea
Height
m
Swell
Dir
 
Speed
knots
Gust
knots
hPa Trend Height
m
Period
s
Dir
22/11:30pm 13.4 SSW 8 11 1019.9 - 0.0 - - - - - - -
22/11:00pm 13.5 SSW 7 11 1020.0 - 0.0 - - - - - - -
22/10:30pm 13.6 SSW 7 11 1019.8 - 0.0 - - - - - - -
22/10:00pm 13.6 SSW 6 9 1019.8 - 0.0 - - - - - - -
22/09:30pm 13.6 SSW 8 12 1020.0 - 0.0 - - - - - - -
22/09:00pm 13.9 SSW 9 12 1019.8 - 0.0 - - - - - - -
22/08:30pm 13.9 SW 11 14 1019.3 - 0.0 - - - - - - -
22/08:00pm 14.1 SW 12 17 1018.8 - 0.0 - - - - - - -
22/07:30pm 14.5 WSW 11 16 1018.2 - 0.0 - - - - - - -
22/07:00pm 14.8 W 12 18 1017.7 - 0.0 - - - - - - -
22/06:30pm 15.9 WNW 12 16 1016.8 - 0.0 - - - - - - -
22/06:00pm 16.7 WNW 11 15 1016.5 - 0.0 - - - - - - -
22/05:30pm 16.7 WNW 9 12 1016.8 - 0.0 - - - - - - -
22/05:00pm 18.4 W 13 17 1016.8 - 0.0 - - - - - - -
22/04:30pm 22.1 WNW 11 14 1016.3 - 0.0 - - - - - - -
22/04:00pm 24.2 WNW 9 14 1016.0 - 0.0 - - - - - - -
22/03:30pm 22.5 WNW 5 8 1016.2 - 0.0 - - - - - - -
22/03:00pm 23.7 W 3 10 1016.2 R 0.0 Fine Mostly cloudy 20 1 1.0 - S
22/02:30pm 24.5 CALM 0 0 1016.4 - 0.0 - - - - - - -
22/02:00pm 24.9 CALM 0 3 1016.5 - 0.0 - - - - - - -
22/01:30pm 23.2 CALM 0 3 1016.3 - 0.0 - - - - - - -
22/01:00pm 24.8 E 1 5 1016.0 - 0.0 - - - - - - -
22/12:30pm 24.5 E 2 5 1016.6 - 0.0 - - - - - - -
22/12:00pm 24.1 ESE 2 5 1016.9 - 0.0 - - - - - - -
22/11:30am 24.3 E 3 6 1017.1 - 0.0 - - - - - - -
22/11:00am 23.5 E 2 5 1017.7 - 0.0 - - - - - - -
22/10:30am 22.5 ESE 4 6 1017.7 - 0.0 - - - - - - -
22/10:00am 22.8 ESE 2 4 1018.1 - 0.0 - - - - - - -
22/09:30am 22.4 ENE 2 5 1018.5 - 0.0 - - - - - - -
22/09:00am 21.1 CALM 0 0 1018.3 F 0.0 Fine Mostly clear 20 1 1.0 - S
22/08:30am 20.6 ESE 1 5 1018.2 - 0.0 - - - - - - -
22/08:00am 18.3 E 6 8 1017.7 - 0.0 - - - - - - -
22/07:30am 16.1 ENE 7 9 1017.7 - 0.0 - - - - - - -
22/07:00am 15.9 E 2 6 1018.1 - 0.0 - - - - - - -
22/06:30am 15.1 NNW 6 8 1017.6 - 0.0 - - - - - - -
22/06:00am 13.5 E 5 7 1017.3 - 0.0 - - - - - - -
22/05:30am 14.9 NE 8 11 1017.2 - 0.0 - - - - - - -
22/05:00am 13.8 ENE 7 10 1017.5 - 0.0 - - - - - - -
22/04:30am 13.7 NE 8 11 1017.9 - 0.0 - - - - - - -
22/04:00am 13.2 ENE 6 8 1018.3 - 0.0 - - - - - - -
22/03:30am 13.6 ENE 8 10 1018.1 - 0.0 - - - - - - -
22/03:00am 13.5 E 8 10 1018.7 - 0.0 - - - - - - -
22/02:30am 13.9 ENE 9 12 1018.9 - 0.0 - - - - - - -
22/02:00am 14.5 NE 10 14 1019.4 - 0.0 - - - - - - -
22/01:30am 15.0 NE 13 17 1019.7 - 0.0 - - - - - - -
22/01:00am 15.0 NE 14 17 1020.2 - 0.0 - - - - - - -
22/12:30am 14.7 NE 14 19 1020.5 - 0.0 - - - - - - -
22/12:00am 14.4 ENE 14 19 1020.8 - 0.0 - - - - - - -
 
Date/Time
EDT
Temp

°C
Wind Pressure Rain
since 9am
mm
Weather Cloud Vis
km
Sea
Height
m
Swell
Dir
 
Speed
knots
Gust
knots
hPa Trend Height
m
Period
s
Dir
21/11:30pm 14.5 ENE 16 21 1021.1 - 0.0 - - - - - - -
21/11:00pm 14.5 NE 16 21 1021.6 - 0.0 - - - - - - -
21/10:30pm 14.8 ENE 16 24 1021.8 - 0.0 - - - - - - -
21/10:00pm 14.8 ENE 17 23 1022.1 - 0.0 - - - - - - -
21/09:30pm 14.7 ENE 17 24 1022.1 - 0.0 - - - - - - -
21/09:00pm 14.8 ENE 17 24 1022.2 - 0.0 - - - - - - -
21/08:30pm 14.9 ENE 16 22 1022.2 - 0.0 - - - - - - -
21/08:00pm 15.1 ENE 16 22 1022.3 - 0.0 - - - - - - -
21/07:30pm 15.3 ENE 16 23 1022.5 - 0.0 - - - - - - -
21/07:00pm 15.4 ENE 17 23 1022.3 - 0.0 - - - - - - -
21/06:30pm 15.7 ENE 16 24 1022.5 - 0.0 - - - - - - -
21/06:00pm 16.3 ENE 17 22 1022.8 - 0.0 - - - - - - -
21/05:30pm 16.2 ENE 16 21 1022.9 - 0.0 - - - - - - -
21/05:00pm 16.8 ENE 14 22 1023.0 - 0.0 - - - - - - -
21/04:30pm 16.7 ENE 14 19 1023.3 - 0.0 - - - - - - -
21/04:00pm 16.6 ENE 15 19 1023.4 - 0.0 - - - - - - -
21/03:30pm 16.8 ENE 15 20 1023.7 - 0.0 - - - - - - -
21/03:00pm 16.5 ENE 15 22 1023.9 F 0.0 Fine Mostly clear 20 2 1.0 - S
21/02:30pm 16.3 ENE 15 23 1024.3 - 0.0 - - - - - - -
21/02:00pm 16.7 ENE 16 23 1024.6 - 0.0 - - - - - - -
21/01:30pm 16.2 ENE 17 24 1024.9 - 0.0 - - - - - - -
21/01:00pm 15.0 E 16 23 1025.2 - 0.0 - - - - - - -
21/12:30pm 14.9 E 16 25 1025.7 - 0.0 - - - - - - -
21/12:26pm 14.7 E 15 25 1025.7 - 0.0 - - - - - - -
21/12:24pm 14.7 E 15 25 1025.7 - 0.0 - - - - - - -
21/12:00pm 14.6 E 15 21 1026.2 - 0.0 - - - - - - -
21/11:30am 14.4 E 14 20 1026.2 - 0.0 - - - - - - -
21/11:00am 14.4 E 12 19 1026.6 - 0.0 - - - - - - -
21/10:30am 14.3 E 13 20 1026.7 - 0.0 - - - - - - -
21/10:00am 14.2 E 15 22 1026.6 - 0.0 - - - - - - -
21/09:30am 13.7 E 18 26 1026.4 - 0.0 - - - - - - -
21/09:06am 13.7 ENE 15 25 1026.6 - 0.0 - - - - - - -
21/09:04am 13.7 ENE 15 25 1026.6 - 0.0 - - - - - - -
21/09:00am 13.6 E 17 25 1026.7 R 0.0 Fine Partly cloudy 20 2 1.0 - S
21/08:30am 13.2 E 16 26 1026.5 - 0.0 - - - - - - -
21/08:01am 12.9 ENE 17 27 1026.0 - 0.0 - - - - - - -
21/08:00am 12.9 ENE 17 27 1026.0 - 0.0 - - - - - - -
21/07:45am 12.7 E 19 29 1025.8 - 0.0 - - - - - - -
21/07:43am 12.7 E 19 29 1025.8 - 0.0 - - - - - - -
21/07:30am 12.4 E 20 28 1025.7 - 0.0 - - - - - - -
21/07:00am 12.2 E 20 28 1025.3 - 0.0 - - - - - - -
21/06:30am 12.0 E 21 34 1025.2 - 0.0 - - - - - - -
21/06:00am 12.1 E 24 38 1024.7 - 0.0 - - - - - - -
21/05:30am 12.1 E 24 36 1024.4 - 0.0 - - - - - - -
21/05:00am 12.0 E 25 38 1024.6 - 0.0 - - - - - - -
21/04:30am 12.1 E 26 37 1024.6 - 0.0 - - - - - - -
21/04:00am 12.1 E 23 33 1024.7 - 0.0 - - - - - - -
21/03:30am 12.1 E 24 37 1025.2 - 0.0 - - - - - - -
21/03:00am 12.2 E 26 41 1025.6 - 0.0 - - - - - - -
21/02:31am 12.2 E 25 35 1025.8 - 0.0 - - - - - - -
21/02:30am 12.2 E 26 35 1025.8 - 0.0 - - - - - - -
21/02:00am 12.2 E 24 34 1026.2 - 0.0 - - - - - - -
21/01:30am 12.2 E 25 37 1026.6 - 0.0 - - - - - - -
21/01:00am 12.3 E 23 36 1027.2 - 0.0 - - - - - - -
21/12:37am 12.3 E 23 33 1027.5 - 0.0 - - - - - - -
21/12:30am 12.3 E 24 33 1027.5 - 0.0 - - - - - - -
21/12:00am 12.5 E 22 33 1028.0 - 0.0 - - - - - - -
 
Date/Time
EDT
Temp

°C
Wind Pressure Rain
since 9am
mm
Weather Cloud Vis
km
Sea
Height
m
Swell
Dir
 
Speed
knots
Gust
knots
hPa Trend Height
m
Period
s
Dir
20/11:30pm 12.6 E 22 35 1028.0 - 0.0 - - - - - - -
20/11:00pm 12.5 E 24 36 1028.1 - 0.0 - - - - - - -
20/10:35pm 12.6 E 20 30 1028.4 - 0.0 - - - - - - -
20/10:30pm 12.5 E 21 29 1028.4 - 0.0 - - - - - - -
20/10:00pm 12.5 E 21 33 1028.3 - 0.0 - - - - - - -
20/09:30pm 12.4 E 20 31 1028.4 - 0.0 - - - - - - -
20/09:07pm 12.5 E 19 29 1028.6 - 0.0 - - - - - - -
20/09:00pm 12.3 E 17 27 1028.5 - 0.0 - - - - - - -
20/08:30pm 12.3 E 18 29 1028.7 - 0.0 - - - - - - -
20/08:00pm 12.2 E 17 29 1028.5 - 0.0 - - - - - - -
20/07:30pm 12.2 E 16 29 1028.8 - 0.0 - - - - - - -
20/07:00pm 12.3 E 16 31 1029.0 - 0.0 - - - - - - -
20/06:30pm 12.5 E 15 28 1029.0 - 0.0 - - - - - - -
20/06:00pm 12.5 E 16 29 1029.6 - 0.0 - - - - - - -
20/05:30pm 12.9 E 17 31 1029.3 - 0.0 - - - - - - -
20/05:00pm 12.9 E 17 28 1029.5 - 0.0 - - - - - - -

Other Formats:

Comma delimited format used in spreadsheet applications
http://www.bom.gov.au/fwo/IDT60701/IDT60701.94842.axf

JavaScript Object Notation format (JSON) in row-major order
http://www.bom.gov.au/fwo/IDT60701/IDT60701.94842.json